sensor_id;sensor_type;location;lat;lon;timestamp;temperature;humidity
33903;DHT22;20194;50.950;5.346;2023-04-21T00:02:24;8.90;59.30
33903;DHT22;20194;50.950;5.346;2023-04-21T00:04:52;9.00;59.00
33903;DHT22;20194;50.950;5.346;2023-04-21T00:07:18;8.90;59.20
33903;DHT22;20194;50.950;5.346;2023-04-21T00:09:45;8.80;60.60
33903;DHT22;20194;50.950;5.346;2023-04-21T00:12:11;8.90;60.20
33903;DHT22;20194;50.950;5.346;2023-04-21T00:14:36;8.90;59.60
33903;DHT22;20194;50.950;5.346;2023-04-21T00:17:04;8.90;59.00
33903;DHT22;20194;50.950;5.346;2023-04-21T00:19:30;8.90;57.90
33903;DHT22;20194;50.950;5.346;2023-04-21T00:21:56;8.90;58.10
33903;DHT22;20194;50.950;5.346;2023-04-21T00:24:24;8.80;59.70
33903;DHT22;20194;50.950;5.346;2023-04-21T00:26:50;8.90;60.20
33903;DHT22;20194;50.950;5.346;2023-04-21T00:29:16;8.90;58.30
33903;DHT22;20194;50.950;5.346;2023-04-21T00:31:42;9.00;58.40
33903;DHT22;20194;50.950;5.346;2023-04-21T00:34:08;8.90;58.60
33903;DHT22;20194;50.950;5.346;2023-04-21T00:36:34;8.90;58.30
33903;DHT22;20194;50.950;5.346;2023-04-21T00:39:00;8.90;58.70
33903;DHT22;20194;50.950;5.346;2023-04-21T00:41:27;9.00;58.50
33903;DHT22;20194;50.950;5.346;2023-04-21T00:44:06;9.00;58.30
33903;DHT22;20194;50.950;5.346;2023-04-21T00:46:33;9.00;58.50
33903;DHT22;20194;50.950;5.346;2023-04-21T00:49:03;8.90;59.60
33903;DHT22;20194;50.950;5.346;2023-04-21T00:51:29;8.90;59.90
33903;DHT22;20194;50.950;5.346;2023-04-21T00:53:58;8.80;60.40
33903;DHT22;20194;50.950;5.346;2023-04-21T00:56:25;8.80;61.40
33903;DHT22;20194;50.950;5.346;2023-04-21T00:58:52;8.70;61.60
33903;DHT22;20194;50.950;5.346;2023-04-21T01:01:18;8.80;60.70
33903;DHT22;20194;50.950;5.346;2023-04-21T01:03:44;8.70;60.50
33903;DHT22;20194;50.950;5.346;2023-04-21T01:06:11;8.70;61.60
33903;DHT22;20194;50.950;5.346;2023-04-21T01:08:37;8.70;61.80
33903;DHT22;20194;50.950;5.346;2023-04-21T01:11:10;8.80;61.50
33903;DHT22;20194;50.950;5.346;2023-04-21T01:13:37;8.80;62.00
33903;DHT22;20194;50.950;5.346;2023-04-21T01:16:03;8.90;60.60
33903;DHT22;20194;50.950;5.346;2023-04-21T01:18:28;8.90;60.30
33903;DHT22;20194;50.950;5.346;2023-04-21T01:20:54;9.00;59.80
33903;DHT22;20194;50.950;5.346;2023-04-21T01:23:21;8.90;59.30
33903;DHT22;20194;50.950;5.346;2023-04-21T01:25:46;8.90;60.00
33903;DHT22;20194;50.950;5.346;2023-04-21T01:28:13;8.90;58.10
33903;DHT22;20194;50.950;5.346;2023-04-21T01:30:38;8.90;60.70
33903;DHT22;20194;50.950;5.346;2023-04-21T01:33:05;8.90;60.20
33903;DHT22;20194;50.950;5.346;2023-04-21T01:35:30;8.90;60.10
33903;DHT22;20194;50.950;5.346;2023-04-21T01:37:56;9.00;61.20
33903;DHT22;20194;50.950;5.346;2023-04-21T01:40:22;9.10;57.90
33903;DHT22;20194;50.950;5.346;2023-04-21T01:42:47;9.10;58.20
33903;DHT22;20194;50.950;5.346;2023-04-21T01:45:13;9.20;58.10
33903;DHT22;20194;50.950;5.346;2023-04-21T01:47:39;9.20;56.90
33903;DHT22;20194;50.950;5.346;2023-04-21T01:50:05;9.10;57.20
33903;DHT22;20194;50.950;5.346;2023-04-21T01:52:30;9.10;58.50
33903;DHT22;20194;50.950;5.346;2023-04-21T01:54:56;9.10;59.30
33903;DHT22;20194;50.950;5.346;2023-04-21T01:57:22;9.10;57.60
33903;DHT22;20194;50.950;5.346;2023-04-21T01:59:47;9.10;56.40
33903;DHT22;20194;50.950;5.346;2023-04-21T02:02:14;9.10;56.30
33903;DHT22;20194;50.950;5.346;2023-04-21T02:04:39;9.10;55.80
33903;DHT22;20194;50.950;5.346;2023-04-21T02:07:05;9.10;55.40
33903;DHT22;20194;50.950;5.346;2023-04-21T02:09:31;9.10;57.10
33903;DHT22;20194;50.950;5.346;2023-04-21T02:11:57;9.10;56.10
33903;DHT22;20194;50.950;5.346;2023-04-21T02:14:26;9.20;56.40
33903;DHT22;20194;50.950;5.346;2023-04-21T02:16:52;9.20;57.10
33903;DHT22;20194;50.950;5.346;2023-04-21T02:19:17;9.20;55.70
33903;DHT22;20194;50.950;5.346;2023-04-21T02:21:43;9.30;55.20
33903;DHT22;20194;50.950;5.346;2023-04-21T02:24:09;9.30;54.70
33903;DHT22;20194;50.950;5.346;2023-04-21T02:26:34;9.30;54.40
33903;DHT22;20194;50.950;5.346;2023-04-21T02:29:00;9.20;55.10
33903;DHT22;20194;50.950;5.346;2023-04-21T02:31:26;9.10;55.10
33903;DHT22;20194;50.950;5.346;2023-04-21T02:33:52;9.10;56.20
33903;DHT22;20194;50.950;5.346;2023-04-21T02:36:19;9.10;55.70
33903;DHT22;20194;50.950;5.346;2023-04-21T02:38:45;9.10;57.40
33903;DHT22;20194;50.950;5.346;2023-04-21T02:41:10;9.00;58.20
33903;DHT22;20194;50.950;5.346;2023-04-21T02:43:36;9.00;57.80
33903;DHT22;20194;50.950;5.346;2023-04-21T02:46:06;9.10;56.30
33903;DHT22;20194;50.950;5.346;2023-04-21T02:48:32;9.00;58.40
33903;DHT22;20194;50.950;5.346;2023-04-21T02:50:58;9.10;58.50
33903;DHT22;20194;50.950;5.346;2023-04-21T02:53:24;9.10;57.20
33903;DHT22;20194;50.950;5.346;2023-04-21T02:55:50;9.10;56.10
33903;DHT22;20194;50.950;5.346;2023-04-21T02:58:15;9.00;57.80
33903;DHT22;20194;50.950;5.346;2023-04-21T03:00:41;9.10;57.20
33903;DHT22;20194;50.950;5.346;2023-04-21T03:03:07;9.20;54.70
33903;DHT22;20194;50.950;5.346;2023-04-21T03:05:32;9.20;55.60
33903;DHT22;20194;50.950;5.346;2023-04-21T03:07:58;9.20;56.80
33903;DHT22;20194;50.950;5.346;2023-04-21T03:10:24;9.10;55.40
33903;DHT22;20194;50.950;5.346;2023-04-21T03:12:49;9.10;55.10
33903;DHT22;20194;50.950;5.346;2023-04-21T03:15:15;9.10;56.40
33903;DHT22;20194;50.950;5.346;2023-04-21T03:17:41;9.10;57.60
33903;DHT22;20194;50.950;5.346;2023-04-21T03:20:08;9.00;57.20
33903;DHT22;20194;50.950;5.346;2023-04-21T03:22:36;9.00;56.90
33903;DHT22;20194;50.950;5.346;2023-04-21T03:25:02;8.90;57.10
33903;DHT22;20194;50.950;5.346;2023-04-21T03:27:29;8.90;56.70
33903;DHT22;20194;50.950;5.346;2023-04-21T03:29:55;9.00;56.70
33903;DHT22;20194;50.950;5.346;2023-04-21T03:32:20;8.90;57.70
33903;DHT22;20194;50.950;5.346;2023-04-21T03:34:46;8.90;57.10
33903;DHT22;20194;50.950;5.346;2023-04-21T03:37:12;8.90;57.80
33903;DHT22;20194;50.950;5.346;2023-04-21T03:39:37;8.70;59.60
33903;DHT22;20194;50.950;5.346;2023-04-21T03:42:03;8.70;61.20
33903;DHT22;20194;50.950;5.346;2023-04-21T03:44:29;8.70;59.80
33903;DHT22;20194;50.950;5.346;2023-04-21T03:46:55;8.70;60.30
33903;DHT22;20194;50.950;5.346;2023-04-21T03:49:22;8.80;57.70
33903;DHT22;20194;50.950;5.346;2023-04-21T03:51:47;8.80;57.30
33903;DHT22;20194;50.950;5.346;2023-04-21T03:54:13;8.80;58.60
33903;DHT22;20194;50.950;5.346;2023-04-21T03:56:39;8.90;57.80
33903;DHT22;20194;50.950;5.346;2023-04-21T03:59:05;8.80;57.60
33903;DHT22;20194;50.950;5.346;2023-04-21T04:01:32;8.70;58.80
33903;DHT22;20194;50.950;5.346;2023-04-21T04:03:58;8.80;57.40
33903;DHT22;20194;50.950;5.346;2023-04-21T04:06:24;8.90;56.60
33903;DHT22;20194;50.950;5.346;2023-04-21T04:08:50;8.80;57.20
33903;DHT22;20194;50.950;5.346;2023-04-21T04:11:15;8.80;58.70
33903;DHT22;20194;50.950;5.346;2023-04-21T04:13:41;8.90;58.10
33903;DHT22;20194;50.950;5.346;2023-04-21T04:16:07;8.90;58.00
33903;DHT22;20194;50.950;5.346;2023-04-21T04:18:32;8.80;57.20
33903;DHT22;20194;50.950;5.346;2023-04-21T04:21:03;8.70;58.10
33903;DHT22;20194;50.950;5.346;2023-04-21T04:23:29;8.70;58.90
33903;DHT22;20194;50.950;5.346;2023-04-21T04:25:54;8.60;59.10
33903;DHT22;20194;50.950;5.346;2023-04-21T04:28:20;8.50;62.00
33903;DHT22;20194;50.950;5.346;2023-04-21T04:30:47;8.50;61.60
33903;DHT22;20194;50.950;5.346;2023-04-21T04:33:13;8.60;61.00
33903;DHT22;20194;50.950;5.346;2023-04-21T04:35:38;8.50;60.00
33903;DHT22;20194;50.950;5.346;2023-04-21T04:38:04;8.60;58.90
33903;DHT22;20194;50.950;5.346;2023-04-21T04:40:32;8.70;59.20
33903;DHT22;20194;50.950;5.346;2023-04-21T04:42:58;8.60;58.20
33903;DHT22;20194;50.950;5.346;2023-04-21T04:45:25;8.70;58.70
33903;DHT22;20194;50.950;5.346;2023-04-21T04:47:53;8.70;57.90
33903;DHT22;20194;50.950;5.346;2023-04-21T04:50:19;8.70;56.90
33903;DHT22;20194;50.950;5.346;2023-04-21T04:52:44;8.60;58.60
33903;DHT22;20194;50.950;5.346;2023-04-21T04:55:12;8.70;57.70
33903;DHT22;20194;50.950;5.346;2023-04-21T04:57:38;8.60;59.00
33903;DHT22;20194;50.950;5.346;2023-04-21T05:00:06;8.50;60.20
33903;DHT22;20194;50.950;5.346;2023-04-21T05:02:35;8.60;59.10
33903;DHT22;20194;50.950;5.346;2023-04-21T05:05:01;8.60;59.10
33903;DHT22;20194;50.950;5.346;2023-04-21T05:07:27;8.60;59.30
33903;DHT22;20194;50.950;5.346;2023-04-21T05:09:52;8.60;60.30
33903;DHT22;20194;50.950;5.346;2023-04-21T05:12:19;8.60;59.10
33903;DHT22;20194;50.950;5.346;2023-04-21T05:14:44;8.70;58.30
33903;DHT22;20194;50.950;5.346;2023-04-21T05:17:10;8.70;56.60
33903;DHT22;20194;50.950;5.346;2023-04-21T05:19:36;8.70;57.30
33903;DHT22;20194;50.950;5.346;2023-04-21T05:22:02;8.70;57.20
33903;DHT22;20194;50.950;5.346;2023-04-21T05:24:33;8.60;59.40
33903;DHT22;20194;50.950;5.346;2023-04-21T05:26:59;8.60;58.30
33903;DHT22;20194;50.950;5.346;2023-04-21T05:29:25;8.60;56.30
33903;DHT22;20194;50.950;5.346;2023-04-21T05:31:51;8.70;56.30
33903;DHT22;20194;50.950;5.346;2023-04-21T05:34:17;8.70;57.50
33903;DHT22;20194;50.950;5.346;2023-04-21T05:36:43;8.70;58.40
33903;DHT22;20194;50.950;5.346;2023-04-21T05:39:09;8.70;57.80
33903;DHT22;20194;50.950;5.346;2023-04-21T05:41:34;8.70;57.80
33903;DHT22;20194;50.950;5.346;2023-04-21T05:44:00;8.90;58.60
33903;DHT22;20194;50.950;5.346;2023-04-21T05:46:26;9.00;57.30
33903;DHT22;20194;50.950;5.346;2023-04-21T05:48:52;8.90;58.30
33903;DHT22;20194;50.950;5.346;2023-04-21T05:51:17;8.80;59.30
33903;DHT22;20194;50.950;5.346;2023-04-21T05:53:44;8.90;56.80
33903;DHT22;20194;50.950;5.346;2023-04-21T05:56:11;8.90;56.50
33903;DHT22;20194;50.950;5.346;2023-04-21T05:58:37;9.00;56.20
33903;DHT22;20194;50.950;5.346;2023-04-21T06:01:04;8.80;57.80
33903;DHT22;20194;50.950;5.346;2023-04-21T06:03:31;8.80;58.30
33903;DHT22;20194;50.950;5.346;2023-04-21T06:05:58;8.80;58.20
33903;DHT22;20194;50.950;5.346;2023-04-21T06:08:25;8.90;57.00
33903;DHT22;20194;50.950;5.346;2023-04-21T06:10:51;8.90;57.80
33903;DHT22;20194;50.950;5.346;2023-04-21T06:13:17;8.90;58.30
33903;DHT22;20194;50.950;5.346;2023-04-21T06:15:43;8.90;58.90
33903;DHT22;20194;50.950;5.346;2023-04-21T06:18:09;9.00;57.80
33903;DHT22;20194;50.950;5.346;2023-04-21T06:20:34;9.00;56.20
33903;DHT22;20194;50.950;5.346;2023-04-21T06:23:00;9.10;55.00
33903;DHT22;20194;50.950;5.346;2023-04-21T06:25:26;9.20;55.10
33903;DHT22;20194;50.950;5.346;2023-04-21T06:27:51;9.20;56.20
33903;DHT22;20194;50.950;5.346;2023-04-21T06:30:17;9.40;56.10
33903;DHT22;20194;50.950;5.346;2023-04-21T06:32:43;9.60;53.30
33903;DHT22;20194;50.950;5.346;2023-04-21T06:35:13;9.70;51.70
33903;DHT22;20194;50.950;5.346;2023-04-21T06:37:40;10.00;50.60
33903;DHT22;20194;50.950;5.346;2023-04-21T06:40:06;10.20;45.30
33903;DHT22;20194;50.950;5.346;2023-04-21T06:42:32;10.10;45.60
33903;DHT22;20194;50.950;5.346;2023-04-21T06:44:58;10.30;46.70
33903;DHT22;20194;50.950;5.346;2023-04-21T06:47:24;10.60;43.30
33903;DHT22;20194;50.950;5.346;2023-04-21T06:49:49;10.80;40.40
33903;DHT22;20194;50.950;5.346;2023-04-21T06:52:15;11.20;38.60
33903;DHT22;20194;50.950;5.346;2023-04-21T06:54:41;11.40;33.80
33903;DHT22;20194;50.950;5.346;2023-04-21T06:57:06;11.30;33.50
33903;DHT22;20194;50.950;5.346;2023-04-21T06:59:32;11.10;33.30
33903;DHT22;20194;50.950;5.346;2023-04-21T07:01:59;11.20;31.30
33903;DHT22;20194;50.950;5.346;2023-04-21T07:04:24;11.20;33.30
33903;DHT22;20194;50.950;5.346;2023-04-21T07:06:54;11.40;32.20
33903;DHT22;20194;50.950;5.346;2023-04-21T07:09:20;11.60;29.80
33903;DHT22;20194;50.950;5.346;2023-04-21T07:11:46;11.80;25.50
33903;DHT22;20194;50.950;5.346;2023-04-21T07:14:12;11.70;25.80
33903;DHT22;20194;50.950;5.346;2023-04-21T07:16:37;12.00;23.70
33903;DHT22;20194;50.950;5.346;2023-04-21T07:19:03;12.30;23.00
33903;DHT22;20194;50.950;5.346;2023-04-21T07:21:29;12.60;19.10
33903;DHT22;20194;50.950;5.346;2023-04-21T07:23:56;12.90;14.90
33903;DHT22;20194;50.950;5.346;2023-04-21T07:26:23;12.70;14.10
33903;DHT22;20194;50.950;5.346;2023-04-21T07:28:49;12.50;14.80
33903;DHT22;20194;50.950;5.346;2023-04-21T07:31:16;12.70;14.90
33903;DHT22;20194;50.950;5.346;2023-04-21T07:33:42;12.90;10.00
33903;DHT22;20194;50.950;5.346;2023-04-21T07:36:08;13.20;10.20
33903;DHT22;20194;50.950;5.346;2023-04-21T07:38:34;13.40;3.20
33903;DHT22;20194;50.950;5.346;2023-04-21T07:40:59;13.40;1.60
33903;DHT22;20194;50.950;5.346;2023-04-21T07:43:25;13.50;1.00
33903;DHT22;20194;50.950;5.346;2023-04-21T07:45:51;13.20;1.50
33903;DHT22;20194;50.950;5.346;2023-04-21T07:48:17;13.30;2.30
33903;DHT22;20194;50.950;5.346;2023-04-21T07:50:43;13.40;1.70
33903;DHT22;20194;50.950;5.346;2023-04-21T07:53:09;13.60;1.80
33903;DHT22;20194;50.950;5.346;2023-04-21T07:55:35;13.70;7.00
33903;DHT22;20194;50.950;5.346;2023-04-21T07:58:03;14.10;2.70
33903;DHT22;20194;50.950;5.346;2023-04-21T08:00:28;14.10;1.00
33903;DHT22;20194;50.950;5.346;2023-04-21T08:02:54;14.30;1.00
33903;DHT22;20194;50.950;5.346;2023-04-21T08:05:20;14.10;1.00
33903;DHT22;20194;50.950;5.346;2023-04-21T08:07:47;14.30;1.00
33903;DHT22;20194;50.950;5.346;2023-04-21T08:10:12;14.30;1.00
33903;DHT22;20194;50.950;5.346;2023-04-21T08:12:38;14.30;1.00
33903;DHT22;20194;50.950;5.346;2023-04-21T08:15:04;14.50;1.00
33903;DHT22;20194;50.950;5.346;2023-04-21T08:17:33;14.60;1.00
33903;DHT22;20194;50.950;5.346;2023-04-21T08:19:59;15.00;1.00
33903;DHT22;20194;50.950;5.346;2023-04-21T08:22:25;15.20;1.00
33903;DHT22;20194;50.950;5.346;2023-04-21T08:24:51;15.30;1.00
33903;DHT22;20194;50.950;5.346;2023-04-21T08:27:16;15.20;1.00
33903;DHT22;20194;50.950;5.346;2023-04-21T08:29:42;15.40;1.00
33903;DHT22;20194;50.950;5.346;2023-04-21T08:32:08;15.50;1.00
33903;DHT22;20194;50.950;5.346;2023-04-21T08:34:33;15.00;1.00
33903;DHT22;20194;50.950;5.346;2023-04-21T08:36:59;14.80;1.00
33903;DHT22;20194;50.950;5.346;2023-04-21T08:39:25;15.40;1.00
33903;DHT22;20194;50.950;5.346;2023-04-21T08:41:51;15.90;1.00
33903;DHT22;20194;50.950;5.346;2023-04-21T08:44:17;16.30;1.00
33903;DHT22;20194;50.950;5.346;2023-04-21T08:46:48;16.30;1.00
33903;DHT22;20194;50.950;5.346;2023-04-21T08:49:19;16.20;1.00
33903;DHT22;20194;50.950;5.346;2023-04-21T08:51:46;16.30;1.00
33903;DHT22;20194;50.950;5.346;2023-04-21T08:54:12;16.30;1.00
33903;DHT22;20194;50.950;5.346;2023-04-21T08:56:38;16.70;1.00
33903;DHT22;20194;50.950;5.346;2023-04-21T08:59:04;16.80;1.00
33903;DHT22;20194;50.950;5.346;2023-04-21T09:01:30;17.00;1.00
33903;DHT22;20194;50.950;5.346;2023-04-21T09:04:19;16.90;1.00
33903;DHT22;20194;50.950;5.346;2023-04-21T09:06:45;16.60;1.00
33903;DHT22;20194;50.950;5.346;2023-04-21T09:09:10;16.50;1.00
33903;DHT22;20194;50.950;5.346;2023-04-21T09:11:36;16.70;1.00
33903;DHT22;20194;50.950;5.346;2023-04-21T09:14:02;17.00;1.00
33903;DHT22;20194;50.950;5.346;2023-04-21T09:16:31;17.20;1.00
33903;DHT22;20194;50.950;5.346;2023-04-21T09:18:59;17.30;1.00
33903;DHT22;20194;50.950;5.346;2023-04-21T09:21:29;17.40;1.00
33903;DHT22;20194;50.950;5.346;2023-04-21T09:23:56;17.20;1.00
33903;DHT22;20194;50.950;5.346;2023-04-21T09:26:22;16.80;1.00
33903;DHT22;20194;50.950;5.346;2023-04-21T09:28:50;16.70;1.00
33903;DHT22;20194;50.950;5.346;2023-04-21T09:31:17;16.30;1.00
33903;DHT22;20194;50.950;5.346;2023-04-21T09:33:48;16.50;1.00
33903;DHT22;20194;50.950;5.346;2023-04-21T09:36:21;16.30;1.00
33903;DHT22;20194;50.950;5.346;2023-04-21T09:41:19;16.50;1.00
33903;DHT22;20194;50.950;5.346;2023-04-21T09:43:46;16.50;1.00
33903;DHT22;20194;50.950;5.346;2023-04-21T09:46:13;16.60;1.00
33903;DHT22;20194;50.950;5.346;2023-04-21T09:48:43;17.00;1.00
33903;DHT22;20194;50.950;5.346;2023-04-21T09:51:14;17.20;1.00
33903;DHT22;20194;50.950;5.346;2023-04-21T09:53:40;17.40;1.00
33903;DHT22;20194;50.950;5.346;2023-04-21T09:56:14;17.30;1.00
33903;DHT22;20194;50.950;5.346;2023-04-21T09:58:53;17.10;1.00
33903;DHT22;20194;50.950;5.346;2023-04-21T10:01:19;17.30;1.00
33903;DHT22;20194;50.950;5.346;2023-04-21T10:03:47;17.40;1.00
33903;DHT22;20194;50.950;5.346;2023-04-21T10:06:14;17.70;1.00
33903;DHT22;20194;50.950;5.346;2023-04-21T10:08:41;18.00;1.00
33903;DHT22;20194;50.950;5.346;2023-04-21T10:11:08;18.00;1.00
33903;DHT22;20194;50.950;5.346;2023-04-21T10:13:36;18.20;1.00
33903;DHT22;20194;50.950;5.346;2023-04-21T10:16:07;18.10;1.00
33903;DHT22;20194;50.950;5.346;2023-04-21T10:18:37;17.80;1.00
33903;DHT22;20194;50.950;5.346;2023-04-21T10:23:49;17.60;1.00
33903;DHT22;20194;50.950;5.346;2023-04-21T10:26:24;17.70;1.00
33903;DHT22;20194;50.950;5.346;2023-04-21T10:28:58;17.90;1.00
33903;DHT22;20194;50.950;5.346;2023-04-21T10:49:58;18.00;99.90
33903;DHT22;20194;50.950;5.346;2023-04-21T10:52:31;17.80;1.00
33903;DHT22;20194;50.950;5.346;2023-04-21T10:57:30;17.80;99.90
33903;DHT22;20194;50.950;5.346;2023-04-21T10:59:56;17.80;99.90
33903;DHT22;20194;50.950;5.346;2023-04-21T11:02:22;17.80;1.00
33903;DHT22;20194;50.950;5.346;2023-04-21T11:04:52;17.50;99.90
33903;DHT22;20194;50.950;5.346;2023-04-21T11:07:19;17.70;1.00
33903;DHT22;20194;50.950;5.346;2023-04-21T11:09:46;18.20;1.00
33903;DHT22;20194;50.950;5.346;2023-04-21T11:12:15;18.20;99.90
33903;DHT22;20194;50.950;5.346;2023-04-21T11:14:45;18.10;1.00
33903;DHT22;20194;50.950;5.346;2023-04-21T11:17:14;18.00;99.90
33903;DHT22;20194;50.950;5.346;2023-04-21T11:19:41;17.90;99.90
33903;DHT22;20194;50.950;5.346;2023-04-21T11:22:09;18.00;99.90
33903;DHT22;20194;50.950;5.346;2023-04-21T11:24:35;18.20;99.90
33903;DHT22;20194;50.950;5.346;2023-04-21T11:27:02;18.00;99.90
33903;DHT22;20194;50.950;5.346;2023-04-21T11:29:28;18.00;99.90
33903;DHT22;20194;50.950;5.346;2023-04-21T11:31:54;18.10;20.10
33903;DHT22;20194;50.950;5.346;2023-04-21T11:34:21;18.10;99.90
33903;DHT22;20194;50.950;5.346;2023-04-21T11:36:47;18.10;99.90
33903;DHT22;20194;50.950;5.346;2023-04-21T11:39:15;18.10;1.00
33903;DHT22;20194;50.950;5.346;2023-04-21T11:41:45;18.30;1.00
33903;DHT22;20194;50.950;5.346;2023-04-21T11:44:12;18.10;1.00
33903;DHT22;20194;50.950;5.346;2023-04-21T11:46:44;18.00;99.90
33903;DHT22;20194;50.950;5.346;2023-04-21T11:49:14;17.80;1.00
33903;DHT22;20194;50.950;5.346;2023-04-21T11:51:41;18.00;1.00
33903;DHT22;20194;50.950;5.346;2023-04-21T11:54:09;18.20;99.90
33903;DHT22;20194;50.950;5.346;2023-04-21T11:56:37;17.90;1.00
33903;DHT22;20194;50.950;5.346;2023-04-21T11:59:07;18.00;1.00
33903;DHT22;20194;50.950;5.346;2023-04-21T12:01:33;18.00;99.90
33903;DHT22;20194;50.950;5.346;2023-04-21T12:03:58;18.20;1.00
33903;DHT22;20194;50.950;5.346;2023-04-21T12:06:26;18.00;1.00
33903;DHT22;20194;50.950;5.346;2023-04-21T12:09:01;18.00;1.00
33903;DHT22;20194;50.950;5.346;2023-04-21T12:11:28;18.20;99.90
33903;DHT22;20194;50.950;5.346;2023-04-21T12:13:57;18.20;99.90
33903;DHT22;20194;50.950;5.346;2023-04-21T12:16:28;18.20;99.90
33903;DHT22;20194;50.950;5.346;2023-04-21T12:18:55;18.20;19.20
33903;DHT22;20194;50.950;5.346;2023-04-21T12:21:25;18.30;1.00
33903;DHT22;20194;50.950;5.346;2023-04-21T12:23:51;18.40;1.00
33903;DHT22;20194;50.950;5.346;2023-04-21T12:26:17;18.30;99.90
33903;DHT22;20194;50.950;5.346;2023-04-21T12:28:43;18.20;99.90
33903;DHT22;20194;50.950;5.346;2023-04-21T12:31:09;18.00;1.00
33903;DHT22;20194;50.950;5.346;2023-04-21T12:33:34;18.20;94.80
33903;DHT22;20194;50.950;5.346;2023-04-21T12:36:00;18.40;36.80
33903;DHT22;20194;50.950;5.346;2023-04-21T12:38:26;18.30;99.90
33903;DHT22;20194;50.950;5.346;2023-04-21T12:40:52;18.30;99.90
33903;DHT22;20194;50.950;5.346;2023-04-21T12:43:18;18.30;35.80
33903;DHT22;20194;50.950;5.346;2023-04-21T12:45:43;18.20;99.90
33903;DHT22;20194;50.950;5.346;2023-04-21T12:48:10;17.80;99.90
33903;DHT22;20194;50.950;5.346;2023-04-21T12:50:36;17.70;99.90
33903;DHT22;20194;50.950;5.346;2023-04-21T12:53:02;17.80;99.90
33903;DHT22;20194;50.950;5.346;2023-04-21T12:55:27;17.80;1.00
33903;DHT22;20194;50.950;5.346;2023-04-21T12:57:53;17.70;99.90
33903;DHT22;20194;50.950;5.346;2023-04-21T13:00:19;17.70;99.90
33903;DHT22;20194;50.950;5.346;2023-04-21T13:02:45;17.80;1.00
33903;DHT22;20194;50.950;5.346;2023-04-21T13:05:11;17.80;99.90
33903;DHT22;20194;50.950;5.346;2023-04-21T13:07:37;17.90;1.00
33903;DHT22;20194;50.950;5.346;2023-04-21T13:10:04;17.60;1.00
33903;DHT22;20194;50.950;5.346;2023-04-21T13:12:31;17.60;99.90
33903;DHT22;20194;50.950;5.346;2023-04-21T13:14:57;17.60;1.00
33903;DHT22;20194;50.950;5.346;2023-04-21T13:17:23;17.70;1.00
33903;DHT22;20194;50.950;5.346;2023-04-21T13:19:49;17.80;75.10
33903;DHT22;20194;50.950;5.346;2023-04-21T13:22:15;17.80;99.90
33903;DHT22;20194;50.950;5.346;2023-04-21T13:24:41;17.70;99.90
33903;DHT22;20194;50.950;5.346;2023-04-21T13:27:07;17.70;99.90
33903;DHT22;20194;50.950;5.346;2023-04-21T13:29:33;17.70;99.90
33903;DHT22;20194;50.950;5.346;2023-04-21T13:32:04;17.70;53.10
33903;DHT22;20194;50.950;5.346;2023-04-21T13:34:31;17.70;99.90
33903;DHT22;20194;50.950;5.346;2023-04-21T13:36:57;17.60;99.90
33903;DHT22;20194;50.950;5.346;2023-04-21T13:39:23;17.60;99.90
33903;DHT22;20194;50.950;5.346;2023-04-21T13:41:49;17.60;99.90
33903;DHT22;20194;50.950;5.346;2023-04-21T13:44:15;17.80;99.90
33903;DHT22;20194;50.950;5.346;2023-04-21T13:46:40;17.60;1.00
33903;DHT22;20194;50.950;5.346;2023-04-21T13:49:07;17.60;99.90
33903;DHT22;20194;50.950;5.346;2023-04-21T13:51:32;17.60;99.90
33903;DHT22;20194;50.950;5.346;2023-04-21T13:53:58;17.60;99.90
33903;DHT22;20194;50.950;5.346;2023-04-21T13:56:24;17.70;99.90
33903;DHT22;20194;50.950;5.346;2023-04-21T13:58:49;17.70;99.90
33903;DHT22;20194;50.950;5.346;2023-04-21T14:01:15;17.70;99.90
33903;DHT22;20194;50.950;5.346;2023-04-21T14:03:41;17.60;99.90
33903;DHT22;20194;50.950;5.346;2023-04-21T14:06:07;17.40;99.90
33903;DHT22;20194;50.950;5.346;2023-04-21T14:08:33;17.50;99.90
33903;DHT22;20194;50.950;5.346;2023-04-21T14:10:59;17.50;99.90
33903;DHT22;20194;50.950;5.346;2023-04-21T14:13:25;17.50;99.90
33903;DHT22;20194;50.950;5.346;2023-04-21T14:15:55;17.60;99.90
33903;DHT22;20194;50.950;5.346;2023-04-21T14:18:21;17.50;99.90
33903;DHT22;20194;50.950;5.346;2023-04-21T14:20:48;17.50;1.00
33903;DHT22;20194;50.950;5.346;2023-04-21T14:23:13;17.40;93.60
33903;DHT22;20194;50.950;5.346;2023-04-21T14:25:39;17.40;99.90
33903;DHT22;20194;50.950;5.346;2023-04-21T14:28:05;17.50;99.90
33903;DHT22;20194;50.950;5.346;2023-04-21T14:30:36;17.50;99.90
33903;DHT22;20194;50.950;5.346;2023-04-21T14:33:03;17.50;99.90
33903;DHT22;20194;50.950;5.346;2023-04-21T14:35:29;17.30;99.90
33903;DHT22;20194;50.950;5.346;2023-04-21T14:37:56;17.40;99.90
33903;DHT22;20194;50.950;5.346;2023-04-21T14:40:22;17.50;1.00
33903;DHT22;20194;50.950;5.346;2023-04-21T14:42:47;17.60;1.00
33903;DHT22;20194;50.950;5.346;2023-04-21T14:45:13;17.60;1.00
33903;DHT22;20194;50.950;5.346;2023-04-21T14:47:39;17.50;1.00
33903;DHT22;20194;50.950;5.346;2023-04-21T14:50:05;17.50;99.90
33903;DHT22;20194;50.950;5.346;2023-04-21T14:52:31;17.40;99.90
33903;DHT22;20194;50.950;5.346;2023-04-21T14:54:57;17.40;1.00
33903;DHT22;20194;50.950;5.346;2023-04-21T14:57:24;17.30;1.00
33903;DHT22;20194;50.950;5.346;2023-04-21T14:59:52;17.40;1.00
33903;DHT22;20194;50.950;5.346;2023-04-21T15:02:21;17.40;1.00
33903;DHT22;20194;50.950;5.346;2023-04-21T15:04:46;17.60;1.00
33903;DHT22;20194;50.950;5.346;2023-04-21T15:07:12;17.50;99.90
33903;DHT22;20194;50.950;5.346;2023-04-21T15:09:41;17.40;1.00
33903;DHT22;20194;50.950;5.346;2023-04-21T15:12:11;17.40;1.00
33903;DHT22;20194;50.950;5.346;2023-04-21T15:14:39;17.20;1.00
33903;DHT22;20194;50.950;5.346;2023-04-21T15:17:05;17.20;1.00
33903;DHT22;20194;50.950;5.346;2023-04-21T15:19:31;17.20;1.00
33903;DHT22;20194;50.950;5.346;2023-04-21T15:21:57;17.00;99.90
33903;DHT22;20194;50.950;5.346;2023-04-21T15:24:23;17.00;99.90
33903;DHT22;20194;50.950;5.346;2023-04-21T15:26:49;17.00;1.00
33903;DHT22;20194;50.950;5.346;2023-04-21T15:29:15;16.80;99.90
33903;DHT22;20194;50.950;5.346;2023-04-21T15:31:41;16.60;1.00
33903;DHT22;20194;50.950;5.346;2023-04-21T15:34:07;16.60;1.00
33903;DHT22;20194;50.950;5.346;2023-04-21T15:36:32;16.50;1.00
33903;DHT22;20194;50.950;5.346;2023-04-21T15:38:58;16.50;1.00
33903;DHT22;20194;50.950;5.346;2023-04-21T15:41:24;16.50;1.00
33903;DHT22;20194;50.950;5.346;2023-04-21T15:43:51;16.50;1.00
33903;DHT22;20194;50.950;5.346;2023-04-21T15:46:16;16.60;1.00
33903;DHT22;20194;50.950;5.346;2023-04-21T15:48:42;16.50;1.00
33903;DHT22;20194;50.950;5.346;2023-04-21T15:51:09;16.50;1.00
33903;DHT22;20194;50.950;5.346;2023-04-21T15:53:35;16.60;1.00
33903;DHT22;20194;50.950;5.346;2023-04-21T15:56:02;16.40;1.00
33903;DHT22;20194;50.950;5.346;2023-04-21T15:58:31;16.10;1.00
33903;DHT22;20194;50.950;5.346;2023-04-21T16:00:57;15.90;1.00
33903;DHT22;20194;50.950;5.346;2023-04-21T16:03:22;15.60;1.00
33903;DHT22;20194;50.950;5.346;2023-04-21T16:05:48;15.40;1.00